createdAt,value
2019-05-16T05:14:00.976Z,81.78
2019-05-16T05:15:01.389Z,81.57
2019-05-16T05:16:01.371Z,81.98
2019-05-16T05:17:01.448Z,81.78
2019-05-16T05:18:00.596Z,81.98
2019-05-16T05:19:00.336Z,81.68
2019-05-16T05:20:01.065Z,81.88
2019-05-16T05:21:00.962Z,82.09
2019-05-16T05:22:01.287Z,81.37
2019-05-16T05:23:00.444Z,81.78
2019-05-16T05:24:00.099Z,81.98
2019-05-16T05:25:00.170Z,82.12
2019-05-16T05:26:00.287Z,82.53
2019-05-16T05:26:59.834Z,82.60
2019-05-16T05:28:00.557Z,82.80
2019-05-16T05:28:59.800Z,82.80
2019-05-16T05:30:01.097Z,82.70
2019-05-16T05:30:59.782Z,82.50
2019-05-16T05:32:04.182Z,82.50
2019-05-16T05:33:00.719Z,82.29
2019-05-16T05:34:01.264Z,82.70
2019-05-16T05:34:59.822Z,83.11
2019-05-16T05:36:01.177Z,82.80
2019-05-16T05:37:00.318Z,83.31
2019-05-16T05:38:00.379Z,82.39
2019-05-16T05:39:09.116Z,82.60
2019-05-16T05:40:23.453Z,82.84
2019-05-16T05:41:23.440Z,82.80
2019-05-16T05:42:23.428Z,82.19
2019-05-16T05:43:23.426Z,81.88
2019-05-16T05:44:23.413Z,81.68
2019-05-16T05:45:23.396Z,82.70
2019-05-16T05:46:23.385Z,82.70
2019-05-16T05:47:23.374Z,82.80
2019-05-16T05:48:23.366Z,82.45
2019-05-16T05:49:23.351Z,82.97
2019-05-16T05:50:23.343Z,82.76
2019-05-16T05:51:23.333Z,82.72
2019-05-16T05:52:23.325Z,82.66
2019-05-16T05:53:23.306Z,82.11
2019-05-16T05:54:23.298Z,81.95
2019-05-16T05:55:23.302Z,81.40
2019-05-16T05:56:23.275Z,81.70
2019-05-16T05:57:23.269Z,81.60
2019-05-16T05:58:23.251Z,81.60
2019-05-16T05:59:23.246Z,81.81
2019-05-16T06:00:23.228Z,82.01
2019-05-16T06:01:23.230Z,81.90
2019-05-16T06:02:23.207Z,81.70
2019-05-16T06:03:23.417Z,81.70
2019-05-16T06:04:23.190Z,81.40
2019-05-16T06:05:23.178Z,81.50
2019-05-16T06:06:23.170Z,81.36
2019-05-16T06:07:23.153Z,81.40
2019-05-16T06:08:23.138Z,81.09
2019-05-16T06:09:28.899Z,81.19
2019-05-16T06:10:50.105Z,80.85
2019-05-16T06:11:50.050Z,80.64
2019-05-16T06:12:49.861Z,80.58
2019-05-16T06:13:49.814Z,80.78
2019-05-16T06:14:50.338Z,80.68
2019-05-16T06:15:47.541Z,80.88
2019-05-16T06:16:47.528Z,80.68
2019-05-16T06:17:47.519Z,80.85
2019-05-16T06:18:47.509Z,80.78
2019-05-16T06:19:49.615Z,81.15
2019-05-16T06:20:47.488Z,80.34
2019-05-16T06:21:47.481Z,80.34
2019-05-16T06:22:47.463Z,80.68
2019-05-16T06:23:47.455Z,80.68
2019-05-16T06:24:47.441Z,80.68
2019-05-16T06:25:50.101Z,80.68
2019-05-16T06:26:47.419Z,80.74
2019-05-16T06:27:47.407Z,80.37
2019-05-16T06:28:47.397Z,80.58
2019-05-16T06:29:49.600Z,80.68
2019-05-16T06:30:47.376Z,80.68
2019-05-16T06:31:49.530Z,80.13
2019-05-16T06:32:47.354Z,80.54
2019-05-16T06:33:50.034Z,80.34
2019-05-16T06:34:47.333Z,80.54
2019-05-16T06:35:47.318Z,80.54
2019-05-16T06:36:47.307Z,80.54
2019-05-16T06:37:49.786Z,80.51
2019-05-16T06:38:49.634Z,80.74
2019-05-16T06:39:47.275Z,80.40
2019-05-16T06:40:49.837Z,80.51
2019-05-16T06:41:47.250Z,80.51
2019-05-16T06:42:47.246Z,80.71
2019-05-16T06:43:47.227Z,80.67
2019-05-16T06:44:47.230Z,80.81
2019-05-16T06:45:47.230Z,80.81
2019-05-16T06:47:00.140Z,80.30
2019-05-16T06:47:50.223Z,80.26
2019-05-16T06:48:47.176Z,80.26
2019-05-16T06:49:47.177Z,79.96
2019-05-16T06:50:47.180Z,79.55
2019-05-16T06:51:47.183Z,79.65
2019-05-16T06:52:47.129Z,78.94
2019-05-16T06:53:47.121Z,79.14
2019-05-16T06:54:47.111Z,78.94
2019-05-16T06:55:47.109Z,79.14
2019-05-16T06:56:47.098Z,78.94
2019-05-16T06:57:47.082Z,78.83
2019-05-16T06:58:50.966Z,79.24
2019-05-16T06:59:47.052Z,78.02
2019-05-16T07:00:47.051Z,78.53
2019-05-16T07:01:47.037Z,78.29
2019-05-16T07:02:47.026Z,79.00
2019-05-16T07:03:47.014Z,78.49
2019-05-16T07:04:46.998Z,78.43
2019-05-16T07:05:46.987Z,78.73
2019-05-16T07:06:55.939Z,79.10
2019-05-16T07:08:11.449Z,78.83
2019-05-16T07:09:11.446Z,78.83
2019-05-16T07:10:11.427Z,78.94
2019-05-16T07:11:11.416Z,78.63
2019-05-16T07:12:11.407Z,78.94
2019-05-16T07:13:11.396Z,78.73
2019-05-16T07:14:11.383Z,79.44
2019-05-16T07:15:12.166Z,78.94
2019-05-16T07:16:11.363Z,79.21
2019-05-16T07:17:11.351Z,78.80
2019-05-16T07:18:13.210Z,79.24
2019-05-16T07:19:11.351Z,79.44
2019-05-16T07:20:11.319Z,79.41
2019-05-16T07:21:11.305Z,79.51
2019-05-16T07:22:11.294Z,79.00
2019-05-16T07:23:11.284Z,79.00
2019-05-16T07:24:11.271Z,78.90
2019-05-16T07:25:11.260Z,79.00
2019-05-16T07:26:11.271Z,78.90
2019-05-16T07:27:12.365Z,79.21
2019-05-16T07:28:11.230Z,78.69
2019-05-16T07:29:11.257Z,78.60
2019-05-16T07:30:11.212Z,78.49
2019-05-16T07:31:18.440Z,78.69
2019-05-16T07:32:35.669Z,78.90
2019-05-16T07:33:35.656Z,79.21
2019-05-16T07:34:35.641Z,79.51
2019-05-16T07:35:35.627Z,79.62
2019-05-16T07:36:35.623Z,79.51
2019-05-16T07:37:35.606Z,79.10
2019-05-16T07:38:35.597Z,79.62
2019-05-16T07:39:38.522Z,79.71
2019-05-16T07:40:35.576Z,79.07
2019-05-16T07:41:35.568Z,79.31
2019-05-16T07:42:35.559Z,79.17
2019-05-16T07:43:35.543Z,79.21
2019-05-16T07:44:35.537Z,78.66
2019-05-16T07:45:37.830Z,79.27
2019-05-16T07:46:35.530Z,79.10
2019-05-16T07:47:35.500Z,78.90
2019-05-16T07:48:35.493Z,79.31
2019-05-16T07:49:35.479Z,79.24
2019-05-16T07:50:35.464Z,79.04
2019-05-16T07:51:35.456Z,78.69
2019-05-16T07:52:36.351Z,79.24
2019-05-16T07:53:35.432Z,79.10
2019-05-16T07:54:35.430Z,80.12
2019-05-16T07:55:35.409Z,80.12
2019-05-16T07:56:35.400Z,80.43
2019-05-16T07:57:35.388Z,79.92
2019-05-16T07:58:35.386Z,79.62
2019-05-16T07:59:35.368Z,80.43
2019-05-16T08:00:49.400Z,79.92
2019-05-16T08:02:00.517Z,79.58
2019-05-16T08:03:00.073Z,80.12
2019-05-16T08:04:00.090Z,80.09
2019-05-16T08:05:00.780Z,80.23
2019-05-16T08:06:01.667Z,79.92
2019-05-16T08:07:00.598Z,79.88
2019-05-16T08:08:00.101Z,79.92
2019-05-16T08:09:00.250Z,79.31
2019-05-16T08:09:59.990Z,79.62
2019-05-16T08:11:01.533Z,78.86
2019-05-16T08:12:02.292Z,79.07
2019-05-16T08:13:03.391Z,79.00
2019-05-16T08:14:01.033Z,79.58
2019-05-16T08:16:01.680Z,79.98
2019-05-16T08:17:01.105Z,79.47
2019-05-16T08:18:03.129Z,78.76
2019-05-16T08:19:00.866Z,78.96
2019-05-16T08:20:00.338Z,79.41
2019-05-16T08:21:00.785Z,79.68
2019-05-16T08:22:01.353Z,79.62
2019-05-16T08:23:00.858Z,79.88
2019-05-16T08:24:05.678Z,80.23
2019-05-16T08:25:24.047Z,78.69
2019-05-16T08:26:24.037Z,78.86
2019-05-16T08:27:24.026Z,79.37
2019-05-16T08:28:24.026Z,79.27
2019-05-16T08:29:24.000Z,79.58
2019-05-16T08:30:23.990Z,80.49
2019-05-16T08:31:23.987Z,80.70
2019-05-16T08:32:23.975Z,80.70
2019-05-16T08:33:23.985Z,80.19
2019-05-16T08:34:23.962Z,79.78
2019-05-16T08:35:23.946Z,80.29
2019-05-16T08:36:23.929Z,79.47
2019-05-16T08:37:37.043Z,80.25
2019-05-16T08:38:51.174Z,80.70
2019-05-16T08:39:50.985Z,80.19
2019-05-16T08:41:06.004Z,80.09
2019-05-16T08:41:51.885Z,79.27
2019-05-16T08:42:51.577Z,79.37
2019-05-16T08:43:52.585Z,79.47
2019-05-16T08:44:51.415Z,79.47
2019-05-16T08:45:50.792Z,80.09
2019-05-16T08:46:54.819Z,79.88
2019-05-16T08:48:12.809Z,80.09
2019-05-16T08:49:12.910Z,79.58
2019-05-16T08:50:04.936Z,80.23
2019-05-16T08:50:14.725Z,79.37
2019-05-16T08:51:12.780Z,79.94
2019-05-16T08:52:12.771Z,79.44
2019-05-16T08:53:13.815Z,79.17
2019-05-16T08:54:13.686Z,79.58
2019-05-16T08:55:13.672Z,79.33
2019-05-16T08:56:13.369Z,79.17
2019-05-16T08:57:25.999Z,78.93
2019-05-16T08:58:40.953Z,79.58
2019-05-16T08:59:37.163Z,79.54
2019-05-16T09:00:37.183Z,80.15
2019-05-16T09:01:37.142Z,80.25
2019-05-16T09:02:37.260Z,80.05
2019-05-16T09:03:40.567Z,80.35
2019-05-16T09:04:37.107Z,79.03
2019-05-16T09:05:37.093Z,79.33
2019-05-16T09:06:37.086Z,79.74
2019-05-16T09:07:37.103Z,79.30
2019-05-16T09:08:37.056Z,79.10
2019-05-16T09:09:44.408Z,79.10
2019-05-16T09:11:09.484Z,79.50
2019-05-16T09:12:27.818Z,78.99
2019-05-16T09:13:27.918Z,78.89
2019-05-16T09:14:27.617Z,78.79
2019-05-16T09:15:27.408Z,78.58
2019-05-16T09:16:27.533Z,78.99
2019-05-16T09:17:27.698Z,78.99
2019-05-16T09:18:28.954Z,79.10
2019-05-16T09:19:27.556Z,78.38
2019-05-16T09:20:28.063Z,78.49
2019-05-16T09:21:27.475Z,78.58
2019-05-16T09:22:28.215Z,77.97
2019-05-16T09:23:26.766Z,79.30
2019-05-16T09:24:27.233Z,78.89
2019-05-16T09:25:27.522Z,79.10
2019-05-16T09:26:27.669Z,78.99
2019-05-16T09:27:27.323Z,78.89
2019-05-16T09:28:28.240Z,79.30
2019-05-16T09:29:27.250Z,78.99
2019-05-16T09:30:27.488Z,79.10
2019-05-16T09:31:27.447Z,79.10
2019-05-16T09:32:27.930Z,77.97
2019-05-16T09:33:27.022Z,78.38
2019-05-16T09:34:34.750Z,78.22
2019-05-16T09:35:50.199Z,79.10
2019-05-16T09:36:50.193Z,78.89
2019-05-16T09:37:50.174Z,78.99
2019-05-16T09:38:50.162Z,79.10
2019-05-16T09:39:50.151Z,79.10
2019-05-16T09:40:50.144Z,78.99
2019-05-16T09:41:54.895Z,79.19
2019-05-16T09:43:17.739Z,79.19
2019-05-16T09:44:14.583Z,78.58
2019-05-16T09:45:17.128Z,78.49
2019-05-16T09:46:16.994Z,78.75
2019-05-16T09:47:17.366Z,78.75
2019-05-16T09:48:14.535Z,78.45
2019-05-16T09:49:23.192Z,78.71
2019-05-16T09:50:39.010Z,78.41
2019-05-16T09:51:39.594Z,79.12
2019-05-16T09:52:38.984Z,78.41
2019-05-16T09:53:38.976Z,78.71
2019-05-16T09:54:38.956Z,77.70
2019-05-16T09:55:38.939Z,78.11
2019-05-16T09:56:38.928Z,78.11
2019-05-16T09:57:38.918Z,77.70
2019-05-16T09:58:38.906Z,77.90
2019-05-16T09:59:38.894Z,78.00
2019-05-16T10:00:38.884Z,77.60
2019-05-16T10:01:38.879Z,78.00
2019-05-16T10:02:38.866Z,77.70
2019-05-16T10:03:39.048Z,77.60
2019-05-16T10:04:38.836Z,77.70
2019-05-16T10:05:38.821Z,77.56
2019-05-16T10:06:38.809Z,78.11
2019-05-16T10:07:39.195Z,78.11
2019-05-16T10:08:38.790Z,77.70
2019-05-16T10:09:45.011Z,77.66
2019-05-16T10:11:03.253Z,77.16
2019-05-16T10:12:13.214Z,76.85
2019-05-16T10:13:28.089Z,77.05
2019-05-16T10:14:27.706Z,77.66
2019-05-16T10:15:27.696Z,77.66
2019-05-16T10:16:27.702Z,77.66
2019-05-16T10:17:27.677Z,77.77
2019-05-16T10:18:28.070Z,77.56
2019-05-16T10:19:27.739Z,77.46
2019-05-16T10:20:27.638Z,77.77
2019-05-16T10:21:27.626Z,78.17
2019-05-16T10:22:27.615Z,77.97
2019-05-16T10:23:28.466Z,77.05
2019-05-16T10:24:27.600Z,78.17
2019-05-16T10:25:27.948Z,77.77
2019-05-16T10:26:27.960Z,77.86
2019-05-16T10:27:27.564Z,77.77
2019-05-16T10:28:27.846Z,77.73
2019-05-16T10:29:27.689Z,77.02
2019-05-16T10:30:27.539Z,77.12
2019-05-16T10:31:41.552Z,77.39
2019-05-16T10:32:51.982Z,77.32
2019-05-16T10:33:51.979Z,76.37
2019-05-16T10:34:53.959Z,76.27
2019-05-16T10:35:51.950Z,76.44
2019-05-16T10:36:51.944Z,76.78
2019-05-16T10:37:51.927Z,76.54
2019-05-16T10:38:51.919Z,75.93
2019-05-16T10:39:51.903Z,75.21
2019-05-16T10:40:51.895Z,75.32
2019-05-16T10:41:51.885Z,75.62
2019-05-16T10:42:51.869Z,75.12
2019-05-16T10:43:51.864Z,74.92
2019-05-16T10:44:51.847Z,75.62
2019-05-16T10:45:53.671Z,75.52
2019-05-16T10:46:51.826Z,75.83
2019-05-16T10:47:51.818Z,75.79
2019-05-16T10:48:51.804Z,75.42
2019-05-16T10:49:51.792Z,75.12
2019-05-16T10:50:51.926Z,74.68
2019-05-16T10:51:51.768Z,74.31
2019-05-16T10:53:13.321Z,74.78
2019-05-16T10:54:05.890Z,74.71
2019-05-16T10:55:17.630Z,73.76
2019-05-16T10:56:16.251Z,74.37
2019-05-16T10:57:16.362Z,74.78
2019-05-16T10:58:33.011Z,75.08
2019-05-16T11:00:06.532Z,75.08
2019-05-16T11:01:07.402Z,74.47
2019-05-16T11:02:07.373Z,74.37
2019-05-16T11:03:06.508Z,74.68
2019-05-16T11:04:07.314Z,74.13
2019-05-16T11:05:22.652Z,74.34
2019-05-16T11:06:29.625Z,74.54
2019-05-16T11:07:29.957Z,74.44
2019-05-16T11:08:29.519Z,74.84
2019-05-16T11:09:29.508Z,74.74
2019-05-16T11:10:29.936Z,73.83
2019-05-16T11:11:29.487Z,74.47
2019-05-16T11:12:46.133Z,74.78
2019-05-16T11:13:30.480Z,74.07
2019-05-16T11:14:29.453Z,74.27
2019-05-16T11:15:29.449Z,74.47
2019-05-16T11:16:29.429Z,73.96
2019-05-16T11:17:29.426Z,73.15
2019-05-16T11:18:29.411Z,73.46
2019-05-16T11:19:29.396Z,73.35
2019-05-16T11:20:29.414Z,73.35
2019-05-16T11:21:29.383Z,73.35
2019-05-16T11:22:29.898Z,73.26
2019-05-16T11:23:31.456Z,73.12
2019-05-16T11:24:29.542Z,72.61
2019-05-16T11:25:32.500Z,72.51
2019-05-16T11:26:30.175Z,72.31
2019-05-16T11:27:29.308Z,72.41
2019-05-16T11:28:29.316Z,71.70
2019-05-16T11:29:29.288Z,72.31
2019-05-16T11:30:29.298Z,72.21
2019-05-16T11:31:29.265Z,72.21
2019-05-16T11:32:29.251Z,72.00
2019-05-16T11:33:29.257Z,72.41
2019-05-16T11:34:29.229Z,72.10
2019-05-16T11:35:29.220Z,71.50
2019-05-16T11:36:29.208Z,72.71
2019-05-16T11:37:29.197Z,72.41
2019-05-16T11:38:29.190Z,72.10
2019-05-16T11:39:29.181Z,72.27
2019-05-16T11:40:30.286Z,72.31
2019-05-16T11:41:29.153Z,72.51
2019-05-16T11:42:29.144Z,72.41
2019-05-16T11:43:29.133Z,72.31
2019-05-16T11:44:29.219Z,72.21
2019-05-16T11:45:29.108Z,72.21
2019-05-16T11:46:29.112Z,72.00
2019-05-16T11:47:29.089Z,72.00
2019-05-16T11:48:29.742Z,72.17
2019-05-16T11:49:29.064Z,72.10
2019-05-16T11:50:29.056Z,72.07
2019-05-16T11:51:29.046Z,72.38
2019-05-16T11:52:29.047Z,72.38
2019-05-16T11:53:29.020Z,72.14
2019-05-16T11:54:29.012Z,72.34
2019-05-16T11:55:34.253Z,72.34
2019-05-16T11:56:53.480Z,71.13
2019-05-16T11:57:53.464Z,71.19
2019-05-16T11:58:53.454Z,70.99
2019-05-16T11:59:53.443Z,70.69
2019-05-16T12:00:53.433Z,69.17
2019-05-16T12:01:53.419Z,69.34
2019-05-16T12:02:53.411Z,69.94
2019-05-16T12:03:53.405Z,70.65
2019-05-16T12:04:53.388Z,70.55
2019-05-16T12:05:53.377Z,70.35
2019-05-16T12:06:53.368Z,70.52
2019-05-16T12:07:56.966Z,70.62
2019-05-16T12:08:53.345Z,69.00
2019-05-16T12:09:55.753Z,69.31
2019-05-16T12:10:53.325Z,69.20
2019-05-16T12:12:02.695Z,69.20
2019-05-16T12:13:27.400Z,69.34
2019-05-16T12:14:42.278Z,69.23
2019-05-16T12:15:42.265Z,69.14
2019-05-16T12:16:42.250Z,69.34
2019-05-16T12:17:42.238Z,69.54
2019-05-16T12:18:42.228Z,70.45
2019-05-16T12:19:44.121Z,69.27
2019-05-16T12:20:42.215Z,69.27
2019-05-16T12:21:42.193Z,69.37
2019-05-16T12:22:42.182Z,69.78
2019-05-16T12:23:42.174Z,70.58
2019-05-16T12:24:42.159Z,70.28
2019-05-16T12:25:42.151Z,70.28
2019-05-16T12:26:42.141Z,70.48
2019-05-16T12:27:42.726Z,69.67
2019-05-16T12:28:42.133Z,69.87
2019-05-16T12:29:42.106Z,70.31
2019-05-16T12:30:42.093Z,70.58
2019-05-16T12:31:55.259Z,70.62
2019-05-16T12:32:43.090Z,70.28
2019-05-16T12:33:42.062Z,70.82
2019-05-16T12:34:42.050Z,70.69
2019-05-16T12:35:42.139Z,71.13
2019-05-16T12:36:42.082Z,70.52
2019-05-16T12:37:42.016Z,70.52
2019-05-16T12:38:42.005Z,70.62
2019-05-16T12:39:42.002Z,70.92
2019-05-16T12:40:41.982Z,71.53
2019-05-16T12:41:41.972Z,70.92
2019-05-16T12:42:41.965Z,71.13
2019-05-16T12:43:48.849Z,71.02
2019-05-16T12:45:07.008Z,71.94
2019-05-16T12:46:07.452Z,71.73
2019-05-16T12:47:07.656Z,71.77
2019-05-16T12:48:06.953Z,72.17
2019-05-16T12:49:06.999Z,71.63
2019-05-16T12:50:07.240Z,72.38
2019-05-16T12:51:08.279Z,72.47
2019-05-16T12:52:06.883Z,71.97
2019-05-16T12:53:08.140Z,72.27
2019-05-16T12:54:07.530Z,72.17
2019-05-16T12:55:06.320Z,72.38
2019-05-16T12:56:06.303Z,72.88
2019-05-16T12:57:06.296Z,72.47
2019-05-16T12:58:14.036Z,73.08
2019-05-16T12:59:07.291Z,73.02
2019-05-16T13:00:07.420Z,73.96
2019-05-16T13:01:07.778Z,74.16
2019-05-16T13:02:07.351Z,74.47
2019-05-16T13:03:07.257Z,74.47
2019-05-16T13:04:06.237Z,74.64
2019-05-16T13:05:06.209Z,73.93
2019-05-16T13:06:06.201Z,74.03
2019-05-16T13:07:09.305Z,74.54
2019-05-16T13:08:06.375Z,74.44
2019-05-16T13:09:07.034Z,73.83
2019-05-16T13:10:06.659Z,73.90
2019-05-16T13:11:07.066Z,73.59
2019-05-16T13:12:06.939Z,73.59
2019-05-16T13:13:07.847Z,73.18
2019-05-16T13:14:10.128Z,72.88
2019-05-16T13:15:07.070Z,73.08
2019-05-16T13:16:07.620Z,72.78
2019-05-16T13:17:07.317Z,73.22
2019-05-16T13:18:07.974Z,73.63
2019-05-16T13:19:07.051Z,73.93
2019-05-16T13:20:07.780Z,74.34
2019-05-16T13:21:06.824Z,74.81
2019-05-16T13:22:07.369Z,74.10
2019-05-16T13:23:13.928Z,74.84
2019-05-16T13:24:07.081Z,74.10
2019-05-16T13:25:07.360Z,74.50
2019-05-16T13:26:07.303Z,74.60
2019-05-16T13:27:08.425Z,74.71
2019-05-16T13:28:08.193Z,73.39
2019-05-16T13:29:07.293Z,74.50
2019-05-16T13:30:07.217Z,74.60
2019-05-16T13:31:07.744Z,74.50
2019-05-16T13:32:07.737Z,74.30
2019-05-16T13:33:07.245Z,74.30
2019-05-16T13:34:07.433Z,74.20
2019-05-16T13:35:07.679Z,74.60
2019-05-16T13:36:07.518Z,74.34
2019-05-16T13:37:07.568Z,74.91
2019-05-16T13:38:07.886Z,74.54
2019-05-16T13:39:08.017Z,74.64
2019-05-16T13:40:07.886Z,75.45
2019-05-16T13:41:07.459Z,74.74
2019-05-16T13:42:07.995Z,75.35
2019-05-16T13:43:09.438Z,75.45
2019-05-16T13:44:17.706Z,75.15
2019-05-16T13:45:07.130Z,75.31
2019-05-16T13:46:07.115Z,75.01
2019-05-16T13:47:07.722Z,74.71
2019-05-16T13:48:08.062Z,74.71
2019-05-16T13:49:07.236Z,74.71
2019-05-16T13:50:11.648Z,74.23
2019-05-16T13:51:14.693Z,74.10
2019-05-16T13:52:07.309Z,74.84
2019-05-16T13:53:07.811Z,75.45
2019-05-16T13:54:07.098Z,75.21
2019-05-16T13:55:07.037Z,74.81
2019-05-16T13:56:11.301Z,75.42
2019-05-16T13:57:30.109Z,74.81
2019-05-16T13:58:30.093Z,74.91
2019-05-16T13:59:30.083Z,74.50
2019-05-16T14:00:30.077Z,74.10
2019-05-16T14:01:30.059Z,74.30
2019-05-16T14:02:30.055Z,74.67
2019-05-16T14:03:30.041Z,74.06
2019-05-16T14:04:30.025Z,74.30
2019-05-16T14:05:30.017Z,74.67
2019-05-16T14:06:30.029Z,74.57
2019-05-16T14:07:29.993Z,74.26
2019-05-16T14:08:29.981Z,74.57
2019-05-16T14:09:29.972Z,74.60
2019-05-16T14:10:30.144Z,74.81
2019-05-16T14:11:29.954Z,75.21
2019-05-16T14:12:29.937Z,75.01
2019-05-16T14:13:29.927Z,75.11
2019-05-16T14:14:37.204Z,74.91
2019-05-16T14:15:54.381Z,75.01
2019-05-16T14:16:54.368Z,75.21
2019-05-16T14:17:56.655Z,75.28
2019-05-16T14:18:54.347Z,74.98
2019-05-16T14:19:57.136Z,74.77
2019-05-16T14:20:54.333Z,75.07
2019-05-16T14:21:56.878Z,75.28
2019-05-16T14:22:57.154Z,74.47
2019-05-16T14:23:56.760Z,74.26
2019-05-16T14:24:54.282Z,74.81
2019-05-16T14:25:54.267Z,74.60
2019-05-16T14:26:54.254Z,74.98
2019-05-16T14:27:56.680Z,75.07
2019-05-16T14:28:57.341Z,74.91
2019-05-16T14:29:54.228Z,74.91
2019-05-16T14:30:54.211Z,75.58
2019-05-16T14:31:56.619Z,75.89
2019-05-16T14:32:56.163Z,74.98
2019-05-16T14:33:56.789Z,74.98
2019-05-16T14:34:54.172Z,74.98
2019-05-16T14:35:56.293Z,75.07
2019-05-16T14:36:54.149Z,74.87
2019-05-16T14:37:57.514Z,74.87
2019-05-16T14:39:19.716Z,74.67
2019-05-16T14:40:18.600Z,75.18
2019-05-16T14:41:18.584Z,75.28
2019-05-16T14:42:18.594Z,75.07
2019-05-16T14:43:18.566Z,75.07
2019-05-16T14:44:18.686Z,75.18
2019-05-16T14:45:18.545Z,75.28
2019-05-16T14:46:18.669Z,75.38
2019-05-16T14:47:18.516Z,74.77
2019-05-16T14:48:18.616Z,75.07
2019-05-16T14:49:18.493Z,75.04
2019-05-16T14:50:18.481Z,74.06
2019-05-16T14:51:18.473Z,74.26
2019-05-16T14:52:18.456Z,74.63
2019-05-16T14:53:18.449Z,74.43
2019-05-16T14:54:18.434Z,74.74
2019-05-16T14:55:18.919Z,74.26
2019-05-16T14:56:18.412Z,74.67
2019-05-16T14:57:18.400Z,74.87
2019-05-16T14:58:18.392Z,74.57
2019-05-16T14:59:18.385Z,74.47
2019-05-16T15:00:18.942Z,74.87
2019-05-16T15:01:18.362Z,74.77
2019-05-16T15:02:18.365Z,74.87
2019-05-16T15:03:18.442Z,74.87
2019-05-16T15:04:18.324Z,74.77
2019-05-16T15:05:18.324Z,74.98
2019-05-16T15:06:18.491Z,75.07
2019-05-16T15:07:19.376Z,75.07
2019-05-16T15:08:18.408Z,74.67
2019-05-16T15:09:18.270Z,74.98
2019-05-16T15:10:18.262Z,75.28
2019-05-16T15:11:18.280Z,74.77
2019-05-16T15:12:18.234Z,75.18
2019-05-16T15:13:18.242Z,74.87
2019-05-16T15:14:18.216Z,74.77
2019-05-16T15:15:24.115Z,74.77
2019-05-16T15:16:19.208Z,75.11
2019-05-16T15:17:18.177Z,75.48
2019-05-16T15:18:18.170Z,75.62
2019-05-16T15:19:18.156Z,75.51
2019-05-16T15:20:18.458Z,75.42
2019-05-16T15:21:18.134Z,75.62
2019-05-16T15:22:18.121Z,75.48
2019-05-16T15:23:18.115Z,75.89
2019-05-16T15:24:18.106Z,75.68
2019-05-16T15:25:18.098Z,75.78
2019-05-16T15:26:18.456Z,75.18
2019-05-16T15:27:18.066Z,74.98
2019-05-16T15:28:18.056Z,74.98
2019-05-16T15:29:18.048Z,75.07
2019-05-16T15:30:18.039Z,74.98
2019-05-16T15:31:18.026Z,75.54
2019-05-16T15:32:18.011Z,74.84
2019-05-16T15:33:19.793Z,74.84
2019-05-16T15:34:17.988Z,74.74
2019-05-16T15:35:18.427Z,74.84
2019-05-16T15:36:17.964Z,74.94
2019-05-16T15:37:17.953Z,74.94
2019-05-16T15:38:17.940Z,75.14
2019-05-16T15:39:17.931Z,74.94
2019-05-16T15:40:18.104Z,74.74
2019-05-16T15:41:17.912Z,74.87
2019-05-16T15:42:18.305Z,74.94
2019-05-16T15:43:18.706Z,75.18
2019-05-16T15:44:17.874Z,75.18
2019-05-16T15:45:34.346Z,74.77
2019-05-16T15:46:18.879Z,75.07
2019-05-16T15:47:17.843Z,74.94
2019-05-16T15:48:17.830Z,75.18
2019-05-16T15:49:17.819Z,75.89
2019-05-16T15:50:18.403Z,75.68
2019-05-16T15:51:21.036Z,75.89
2019-05-16T15:52:17.857Z,75.68
2019-05-16T15:53:17.796Z,75.78
2019-05-16T15:54:17.994Z,75.68
2019-05-16T15:55:18.096Z,75.99
2019-05-16T15:56:17.932Z,76.39
2019-05-16T15:57:17.785Z,75.58
2019-05-16T15:58:18.197Z,75.68
2019-05-16T15:59:18.115Z,75.99
2019-05-16T16:00:18.141Z,75.78
2019-05-16T16:01:18.520Z,76.12
2019-05-16T16:02:17.842Z,77.30
2019-05-16T16:03:17.862Z,77.24
2019-05-16T16:04:17.655Z,76.83
2019-05-16T16:05:18.101Z,77.04
2019-05-16T16:06:17.940Z,77.14
2019-05-16T16:07:18.260Z,77.91
2019-05-16T16:08:18.377Z,76.90
2019-05-16T16:09:17.596Z,76.83
2019-05-16T16:10:17.586Z,77.00
2019-05-16T16:11:17.573Z,76.94
2019-05-16T16:12:17.563Z,77.14
2019-05-16T16:13:19.812Z,77.24
2019-05-16T16:14:17.546Z,77.14
2019-05-16T16:15:17.627Z,77.44
2019-05-16T16:16:17.562Z,77.44
2019-05-16T16:17:17.789Z,77.64
2019-05-16T16:18:21.400Z,77.44
2019-05-16T16:19:17.643Z,77.64
2019-05-16T16:20:17.477Z,77.64
2019-05-16T16:21:17.467Z,77.85
2019-05-16T16:22:17.858Z,78.05
2019-05-16T16:23:17.913Z,78.36
2019-05-16T16:24:18.982Z,77.75
2019-05-16T16:25:17.785Z,77.95
2019-05-16T16:26:17.861Z,78.22
2019-05-16T16:27:17.396Z,78.11
2019-05-16T16:28:17.897Z,78.32
2019-05-16T16:29:17.380Z,78.22
2019-05-16T16:30:18.639Z,77.75
2019-05-16T16:31:17.352Z,78.15
2019-05-16T16:32:17.463Z,78.25
2019-05-16T16:33:25.292Z,78.25
2019-05-16T16:34:18.336Z,78.25
2019-05-16T16:35:17.482Z,78.66
2019-05-16T16:36:17.314Z,78.66
2019-05-16T16:37:17.290Z,78.76
2019-05-16T16:38:17.277Z,78.76
2019-05-16T16:39:17.264Z,78.76
2019-05-16T16:40:17.697Z,78.56
2019-05-16T16:41:17.243Z,78.56
2019-05-16T16:42:17.230Z,78.25
2019-05-16T16:43:17.223Z,78.76
2019-05-16T16:44:17.767Z,78.90
2019-05-16T16:45:17.199Z,79.91
2019-05-16T16:46:17.198Z,79.41
2019-05-16T16:47:17.742Z,79.21
2019-05-16T16:48:17.379Z,79.21
2019-05-16T16:49:17.474Z,79.61
2019-05-16T16:50:17.282Z,79.91
2019-05-16T16:51:17.815Z,79.71
2019-05-16T16:52:17.120Z,79.88
2019-05-16T16:53:17.623Z,78.60
2019-05-16T16:54:17.155Z,79.00
2019-05-16T16:55:17.167Z,79.24
2019-05-16T16:56:17.094Z,79.10
2019-05-16T16:57:17.721Z,79.14
2019-05-16T16:58:17.668Z,79.41
2019-05-16T16:59:17.443Z,79.61
2019-05-16T17:00:17.647Z,80.22
2019-05-16T17:01:17.494Z,79.81
2019-05-16T17:02:17.240Z,80.12
2019-05-16T17:03:16.999Z,79.85
2019-05-16T17:04:17.590Z,80.22
2019-05-16T17:05:17.137Z,80.22
2019-05-16T17:06:17.650Z,80.36
2019-05-16T17:07:16.957Z,79.91
2019-05-16T17:08:17.040Z,80.12
2019-05-16T17:09:16.934Z,80.01
2019-05-16T17:10:16.920Z,80.05
2019-05-16T17:11:16.910Z,79.85
2019-05-16T17:12:16.902Z,80.66
2019-05-16T17:13:17.088Z,80.80
2019-05-16T17:14:17.316Z,80.76
2019-05-16T17:15:17.151Z,80.70
2019-05-16T17:16:22.989Z,80.90
2019-05-16T17:17:41.323Z,80.96
2019-05-16T17:18:41.310Z,81.17
2019-05-16T17:19:41.305Z,81.37
2019-05-16T17:20:41.289Z,80.96
2019-05-16T17:21:41.276Z,80.96
2019-05-16T17:22:41.265Z,80.96
2019-05-16T17:23:41.253Z,81.00
2019-05-16T17:24:41.243Z,80.87
2019-05-16T17:25:41.236Z,81.17
2019-05-16T17:26:41.223Z,80.56
2019-05-16T17:27:41.214Z,79.95
2019-05-16T17:28:41.214Z,80.60
2019-05-16T17:29:41.190Z,80.46
2019-05-16T17:30:41.179Z,80.46
2019-05-16T17:31:41.170Z,80.46
2019-05-16T17:32:41.154Z,80.46
2019-05-16T17:33:41.143Z,80.76
2019-05-16T17:34:41.134Z,79.95
2019-05-16T17:35:41.134Z,80.05
2019-05-16T17:36:41.109Z,80.05
2019-05-16T17:37:41.103Z,80.36
2019-05-16T17:38:41.088Z,79.85
2019-05-16T17:39:41.075Z,80.05
2019-05-16T17:40:41.066Z,80.15
2019-05-16T17:41:41.053Z,80.05
2019-05-16T17:42:41.046Z,80.05
2019-05-16T17:43:41.031Z,80.36
2019-05-16T17:44:41.025Z,80.15
2019-05-16T17:45:41.016Z,80.15
2019-05-16T17:46:41.160Z,80.36
2019-05-16T17:47:40.992Z,80.56
2019-05-16T17:48:40.986Z,80.49
2019-05-16T17:49:40.969Z,80.66
2019-05-16T17:50:40.954Z,80.36
2019-05-16T17:51:40.945Z,79.85
2019-05-16T17:52:40.934Z,80.05
2019-05-16T17:53:40.921Z,80.15
2019-05-16T17:54:40.919Z,80.36
2019-05-16T17:55:40.908Z,80.05
2019-05-16T17:56:40.890Z,80.05
2019-05-16T17:57:40.880Z,80.15
2019-05-16T17:58:40.867Z,80.15
2019-05-16T17:59:40.863Z,80.36
2019-05-16T18:00:40.848Z,80.15
2019-05-16T18:01:40.837Z,80.05
2019-05-16T18:02:40.822Z,80.26
2019-05-16T18:03:40.813Z,79.65
2019-05-16T18:04:41.271Z,79.85
2019-05-16T18:05:40.791Z,80.36
2019-05-16T18:06:40.786Z,80.15
2019-05-16T18:07:40.767Z,80.66
2019-05-16T18:08:40.758Z,80.60
2019-05-16T18:09:43.040Z,80.90
2019-05-16T18:10:40.739Z,81.45
2019-05-16T18:11:40.721Z,82.40
2019-05-16T18:12:40.713Z,83.05
2019-05-16T18:13:40.699Z,83.36
2019-05-16T18:14:40.690Z,83.86
2019-05-16T18:15:40.684Z,83.45
2019-05-16T18:16:52.357Z,84.06
2019-05-16T18:18:07.057Z,84.47